Aeroporto :
LOGIN :

Iscrizione | Disclaimer

   EN    FR    IT 

 










Sommario :    VFR   VFR Marginale   IFR   IFR Intensivo   IFR Molto Intensivo
Visibilità : 
Base nubi : 
>= 8 km
>= 3000ft
5 / 8 km
1000 / 3000 ft
1500m / 5 km
500 / 1000 ft
800 / 1500m
200 / 500 ft
< 800m
< 200 ft
Simboli :   Temporali  Nebbia  Neve Forte  Precipitazioni Forti  Vento > 20 kt
SIGMETs :   Varie  Temporali  Ghiacco  Turbolenza  Onda orograficha  Ceneri Vulcaniche






- Altitudine del aeroporto : 1649 ft
- Codice IATA : HHN


EDFH - Frankfurt-Hahn Rhineland-Palatinate

ULTIMO METAR :
  • 082020Z 25016KT 9999 SCT015 06/05 Q1002

METARs OBSOLETI :
  • 081950Z 25014KT 9999 FEW015 SCT030 06/05 Q1002
  • 081920Z 26016KT 9999 SCT015 06/05 Q1002
  • 081850Z 25014KT 210V270 9999 FEW013 SCT045 06/05 Q1002
  • 081820Z 24014G25KT 210V270 9999 -DZ SCT045 06/05 Q1003
  • 081750Z 24012KT 210V270 6000 -RA FEW009 BKN034CB 06/06 Q1003

TAF TAF EDFH
Valido dal 08 a 18 ore il 09 a 18 ore UTC


081700Z 0818/0918 21015G25KT 9999 SCT005 BKN015
TEMPO 0818/0820 2500 RADZ BKN004
PROB30
TEMPO 0821/0909 22020G35KT 4000 SHRA BKN008TCU
PROB40
TEMPO 0909/0916 22020G35KT 2500 SHRAGS BKN008 BKN012CB
BECMG 0915/0918 27013KT



MetMap, La meteo Aeronautica in un colpo d'occhio ! - Copyright ORBIFLY Dicembre 2007 - Disclaimer

ORBIFLY MET'MAP TEAM :

Programmazione e sviluppo : Alexandra Zaïnal
Concezione : Baudouin d'Aumeries
Aiuto per la programmazione : Marc-Olivier Méhu
Supporto tecnico e logistico : Manuel Goepfert
Aiuto per la traduzione : Arnaldo La Scala

Contatto : metmap@orbifly.com




FONTI E CREDITI :

   NOAA